createdAt,value
2019-02-05T00:00:52.955Z,1006.18
2019-02-05T00:01:52.944Z,1006.29
2019-02-05T00:02:52.931Z,1006.28
2019-02-05T00:03:52.961Z,1006.30
2019-02-05T00:04:52.911Z,1006.32
2019-02-05T00:05:52.900Z,1006.25
2019-02-05T00:06:52.889Z,1006.21
2019-02-05T00:07:52.883Z,1006.15
2019-02-05T00:08:52.867Z,1006.11
2019-02-05T00:09:52.919Z,1006.08
2019-02-05T00:10:52.847Z,1006.10
2019-02-05T00:11:52.841Z,1006.13
2019-02-05T00:12:52.824Z,1006.12
2019-02-05T00:13:52.813Z,1006.15
2019-02-05T00:14:52.807Z,1006.06
2019-02-05T00:15:52.838Z,1006.08
2019-02-05T00:16:52.782Z,1006.10
2019-02-05T00:17:52.781Z,1006.10
2019-02-05T00:18:52.758Z,1006.12
2019-02-05T00:19:52.748Z,1006.15
2019-02-05T00:20:52.739Z,1006.16
2019-02-05T00:21:52.780Z,1006.21
2019-02-05T00:22:52.717Z,1006.19
2019-02-05T00:23:52.708Z,1006.18
2019-02-05T00:24:52.696Z,1006.23
2019-02-05T00:25:52.685Z,1006.13
2019-02-05T00:26:52.676Z,1006.09
2019-02-05T00:27:52.807Z,1006.11
2019-02-05T00:28:52.651Z,1006.06
2019-02-05T00:29:52.639Z,1006.06
2019-02-05T00:30:52.629Z,1006.06
2019-02-05T00:31:52.618Z,1006.11
2019-02-05T00:32:52.610Z,1006.10
2019-02-05T00:33:52.666Z,1006.10
2019-02-05T00:34:52.710Z,1006.01
2019-02-05T00:35:52.574Z,1005.98
2019-02-05T00:36:52.569Z,1005.93
2019-02-05T00:37:52.555Z,1005.86
2019-02-05T00:38:52.546Z,1005.82
2019-02-05T00:39:52.575Z,1005.88
2019-02-05T00:40:52.525Z,1005.84
2019-02-05T00:41:52.509Z,1005.83
2019-02-05T00:42:52.497Z,1005.86
2019-02-05T00:43:52.487Z,1005.85
2019-02-05T00:44:52.549Z,1005.89
2019-02-05T00:45:52.556Z,1005.87
2019-02-05T00:46:52.476Z,1005.91
2019-02-05T00:47:52.445Z,1005.89
2019-02-05T00:48:52.435Z,1005.95
2019-02-05T00:49:52.422Z,1005.91
2019-02-05T00:50:52.415Z,1005.94
2019-02-05T00:51:52.439Z,1005.90
2019-02-05T00:52:52.398Z,1005.93
2019-02-05T00:53:52.379Z,1005.94
2019-02-05T00:54:52.367Z,1005.94
2019-02-05T00:55:52.363Z,1006.02
2019-02-05T00:56:52.348Z,1006.02
2019-02-05T00:57:52.450Z,1006.07
2019-02-05T00:58:52.333Z,1006.10
2019-02-05T00:59:52.312Z,1006.08
2019-02-05T01:00:52.302Z,1006.10
2019-02-05T01:01:52.301Z,1006.13
2019-02-05T01:02:52.282Z,1006.12
2019-02-05T01:03:52.303Z,1006.15
2019-02-05T01:04:52.270Z,1006.10
2019-02-05T01:05:52.249Z,1006.04
2019-02-05T01:06:52.237Z,1006.08
2019-02-05T01:07:52.227Z,1006.10
2019-02-05T01:08:52.216Z,1006.10
2019-02-05T01:09:52.254Z,1006.12
2019-02-05T01:10:52.215Z,1006.15
2019-02-05T01:11:52.214Z,1006.11
2019-02-05T01:12:52.174Z,1006.15
2019-02-05T01:13:52.163Z,1006.16
2019-02-05T01:14:52.154Z,1006.17
2019-02-05T01:15:52.170Z,1006.11
2019-02-05T01:16:52.129Z,1006.15
2019-02-05T01:17:52.128Z,1006.11
2019-02-05T01:18:52.114Z,1006.06
2019-02-05T01:19:52.107Z,1006.04
2019-02-05T01:20:52.107Z,1005.99
2019-02-05T01:21:52.123Z,1005.97
2019-02-05T01:22:52.071Z,1006.01
2019-02-05T01:23:52.056Z,1006.02
2019-02-05T01:24:52.042Z,1006.08
2019-02-05T01:25:52.035Z,1006.09
2019-02-05T01:26:52.043Z,1006.11
2019-02-05T01:27:52.044Z,1006.11
2019-02-05T01:28:52.001Z,1006.09
2019-02-05T01:29:51.989Z,1006.05
2019-02-05T01:30:51.979Z,1006.05
2019-02-05T01:31:51.967Z,1006.08
2019-02-05T01:32:51.967Z,1006.06
2019-02-05T01:33:51.985Z,1006.11
2019-02-05T01:34:51.947Z,1006.07
2019-02-05T01:35:51.923Z,1006.07
2019-02-05T01:36:51.915Z,1006.07
2019-02-05T01:37:51.902Z,1006.04
2019-02-05T01:38:51.894Z,1006.05
2019-02-05T01:39:51.941Z,1006.09
2019-02-05T01:40:51.887Z,1006.15
2019-02-05T01:41:51.877Z,1006.08
2019-02-05T01:42:51.847Z,1006.09
2019-02-05T01:43:51.837Z,1006.11
2019-02-05T01:44:51.825Z,1006.15
2019-02-05T01:45:51.851Z,1006.10
2019-02-05T01:46:51.803Z,1006.11
2019-02-05T01:47:51.801Z,1006.14
2019-02-05T01:48:51.783Z,1006.13
2019-02-05T01:49:51.771Z,1006.16
2019-02-05T01:50:51.763Z,1006.14
2019-02-05T01:51:51.794Z,1006.16
2019-02-05T01:52:51.848Z,1006.15
2019-02-05T01:53:51.733Z,1006.12
2019-02-05T01:54:51.717Z,1006.15
2019-02-05T01:55:51.705Z,1006.11
2019-02-05T01:56:51.694Z,1006.11
2019-02-05T01:57:51.720Z,1006.12
2019-02-05T01:58:51.674Z,1006.09
2019-02-05T01:59:51.688Z,1006.09
2019-02-05T02:00:51.652Z,1006.09
2019-02-05T02:01:51.641Z,1006.11
2019-02-05T02:02:51.631Z,1006.09
2019-02-05T02:03:51.672Z,1006.13
2019-02-05T02:04:51.607Z,1006.08
2019-02-05T02:05:51.603Z,1006.04
2019-02-05T02:06:51.603Z,1006.08
2019-02-05T02:07:51.576Z,1006.07
2019-02-05T02:08:51.565Z,1006.04
2019-02-05T02:09:51.585Z,1005.95
2019-02-05T02:10:51.547Z,1006.04
2019-02-05T02:11:51.533Z,1006.08
2019-02-05T02:12:51.533Z,1006.08
2019-02-05T02:13:51.523Z,1006.08
2019-02-05T02:14:51.517Z,1006.09
2019-02-05T02:15:51.524Z,1006.13
2019-02-05T02:16:51.479Z,1006.12
2019-02-05T02:17:51.472Z,1006.13
2019-02-05T02:18:51.456Z,1006.19
2019-02-05T02:19:51.444Z,1006.16
2019-02-05T02:20:51.455Z,1006.14
2019-02-05T02:21:51.474Z,1006.11
2019-02-05T02:22:51.411Z,1006.11
2019-02-05T02:23:51.403Z,1006.12
2019-02-05T02:24:51.392Z,1006.15
2019-02-05T02:25:51.378Z,1006.19
2019-02-05T02:26:52.327Z,1006.19
2019-02-05T02:27:51.389Z,1006.19
2019-02-05T02:28:51.349Z,1006.20
2019-02-05T02:29:51.335Z,1006.15
2019-02-05T02:30:51.341Z,1006.12
2019-02-05T02:31:51.321Z,1006.15
2019-02-05T02:32:51.323Z,1006.18
2019-02-05T02:33:51.358Z,1006.17
2019-02-05T02:34:51.281Z,1006.14
2019-02-05T02:35:51.274Z,1006.17
2019-02-05T02:36:51.262Z,1006.16
2019-02-05T02:37:51.250Z,1006.17
2019-02-05T02:38:51.280Z,1006.17
2019-02-05T02:39:51.261Z,1006.14
2019-02-05T02:40:51.218Z,1006.23
2019-02-05T02:41:51.206Z,1006.17
2019-02-05T02:42:51.194Z,1006.17
2019-02-05T02:43:51.188Z,1006.22
2019-02-05T02:44:51.186Z,1006.19
2019-02-05T02:45:51.208Z,1006.19
2019-02-05T02:46:51.164Z,1006.13
2019-02-05T02:47:51.140Z,1006.16
2019-02-05T02:48:51.132Z,1006.11
2019-02-05T02:49:51.119Z,1006.15
2019-02-05T02:50:51.123Z,1006.15
2019-02-05T02:51:51.156Z,1006.17
2019-02-05T02:52:51.095Z,1006.17
2019-02-05T02:53:51.081Z,1006.17
2019-02-05T02:54:51.063Z,1006.20
2019-02-05T02:55:51.190Z,1006.18
2019-02-05T02:56:51.044Z,1006.26
2019-02-05T02:57:51.233Z,1006.24
2019-02-05T02:58:51.032Z,1006.28
2019-02-05T02:59:51.021Z,1006.19
2019-02-05T03:00:51.019Z,1006.22
2019-02-05T03:01:51.005Z,1006.31
2019-02-05T03:02:50.990Z,1006.30
2019-02-05T03:03:51.006Z,1006.32
2019-02-05T03:04:50.980Z,1006.32
2019-02-05T03:05:50.958Z,1006.29
2019-02-05T03:06:50.975Z,1006.31
2019-02-05T03:07:50.926Z,1006.37
2019-02-05T03:08:50.919Z,1006.35
2019-02-05T03:09:50.984Z,1006.33
2019-02-05T03:10:50.906Z,1006.33
2019-02-05T03:11:50.906Z,1006.34
2019-02-05T03:12:50.887Z,1006.31
2019-02-05T03:13:50.879Z,1006.30
2019-02-05T03:14:50.857Z,1006.38
2019-02-05T03:15:50.873Z,1006.38
2019-02-05T03:16:50.862Z,1006.37
2019-02-05T03:17:50.822Z,1006.36
2019-02-05T03:18:50.811Z,1006.38
2019-02-05T03:19:50.800Z,1006.44
2019-02-05T03:20:50.807Z,1006.40
2019-02-05T03:21:50.853Z,1006.43
2019-02-05T03:22:50.769Z,1006.40
2019-02-05T03:23:50.781Z,1006.38
2019-02-05T03:24:50.748Z,1006.44
2019-02-05T03:25:50.741Z,1006.49
2019-02-05T03:26:50.730Z,1006.44
2019-02-05T03:27:53.531Z,1006.46
2019-02-05T03:28:50.704Z,1006.48
2019-02-05T03:29:50.705Z,1006.49
2019-02-05T03:30:50.683Z,1006.41
2019-02-05T03:31:50.671Z,1006.45
2019-02-05T03:32:50.665Z,1006.49
2019-02-05T03:33:50.708Z,1006.53
2019-02-05T03:34:50.637Z,1006.52
2019-02-05T03:35:50.635Z,1006.55
2019-02-05T03:36:50.613Z,1006.57
2019-02-05T03:37:50.599Z,1006.64
2019-02-05T03:38:50.600Z,1006.62
2019-02-05T03:39:50.625Z,1006.65
2019-02-05T03:40:50.571Z,1006.68
2019-02-05T03:41:50.555Z,1006.66
2019-02-05T03:42:50.552Z,1006.65
2019-02-05T03:43:50.551Z,1006.60
2019-02-05T03:44:50.527Z,1006.59
2019-02-05T03:45:50.552Z,1006.58
2019-02-05T03:46:50.504Z,1006.69
2019-02-05T03:47:50.492Z,1006.70
2019-02-05T03:48:50.481Z,1006.72
2019-02-05T03:49:50.477Z,1006.68
2019-02-05T03:50:50.461Z,1006.68
2019-02-05T03:51:50.486Z,1006.63
2019-02-05T03:52:50.440Z,1006.65
2019-02-05T03:53:50.427Z,1006.56
2019-02-05T03:54:50.417Z,1006.52
2019-02-05T03:55:50.411Z,1006.53
2019-02-05T03:56:50.403Z,1006.50
2019-02-05T03:57:50.443Z,1006.53
2019-02-05T03:58:50.400Z,1006.48
2019-02-05T03:59:50.396Z,1006.52
2019-02-05T04:00:50.367Z,1006.50
2019-02-05T04:01:50.361Z,1006.43
2019-02-05T04:02:50.361Z,1006.48
2019-02-05T04:03:50.379Z,1006.48
2019-02-05T04:04:50.332Z,1006.51
2019-02-05T04:05:50.325Z,1006.54
2019-02-05T04:06:50.297Z,1006.51
2019-02-05T04:07:50.284Z,1006.49
2019-02-05T04:08:50.283Z,1006.52
2019-02-05T04:09:50.321Z,1006.50
2019-02-05T04:10:50.252Z,1006.48
2019-02-05T04:11:50.270Z,1006.46
2019-02-05T04:12:50.231Z,1006.53
2019-02-05T04:13:50.216Z,1006.51
2019-02-05T04:14:50.235Z,1006.49
2019-02-05T04:15:50.244Z,1006.53
2019-02-05T04:16:50.280Z,1006.55
2019-02-05T04:17:50.175Z,1006.54
2019-02-05T04:18:50.180Z,1006.59
2019-02-05T04:19:50.152Z,1006.60
2019-02-05T04:20:50.155Z,1006.61
2019-02-05T04:21:50.179Z,1006.61
2019-02-05T04:22:50.122Z,1006.59
2019-02-05T04:23:50.154Z,1006.61
2019-02-05T04:24:50.112Z,1006.58
2019-02-05T04:25:50.114Z,1006.58
2019-02-05T04:26:50.085Z,1006.56
2019-02-05T04:27:50.349Z,1006.53
2019-02-05T04:28:50.070Z,1006.57
2019-02-05T04:29:50.076Z,1006.59
2019-02-05T04:30:50.043Z,1006.59
2019-02-05T04:31:50.032Z,1006.56
2019-02-05T04:32:50.021Z,1006.61
2019-02-05T04:33:50.312Z,1006.56
2019-02-05T04:34:50.034Z,1006.58
2019-02-05T04:35:49.981Z,1006.62
2019-02-05T04:36:49.968Z,1006.57
2019-02-05T04:37:49.966Z,1006.57
2019-02-05T04:38:50.014Z,1006.56
2019-02-05T04:39:49.978Z,1006.56
2019-02-05T04:40:49.930Z,1006.55
2019-02-05T04:41:49.927Z,1006.60
2019-02-05T04:42:49.909Z,1006.56
2019-02-05T04:43:49.911Z,1006.51
2019-02-05T04:44:49.891Z,1006.52
2019-02-05T04:45:49.938Z,1006.51
2019-02-05T04:46:49.873Z,1006.44
2019-02-05T04:47:49.857Z,1006.48
2019-02-05T04:48:49.847Z,1006.43
2019-02-05T04:49:49.881Z,1006.42
2019-02-05T04:50:49.822Z,1006.48
2019-02-05T04:51:49.850Z,1006.45
2019-02-05T04:52:49.870Z,1006.49
2019-02-05T04:53:49.859Z,1006.45
2019-02-05T04:54:49.790Z,1006.49
2019-02-05T04:55:49.777Z,1006.51
2019-02-05T04:56:49.773Z,1006.51
2019-02-05T04:57:58.144Z,1006.55
2019-02-05T04:58:50.786Z,1006.58
2019-02-05T04:59:49.725Z,1006.55
2019-02-05T05:00:49.713Z,1006.56
2019-02-05T05:01:49.708Z,1006.59
2019-02-05T05:02:49.725Z,1006.55
2019-02-05T05:03:49.721Z,1006.54
2019-02-05T05:04:49.690Z,1006.55
2019-02-05T05:05:49.673Z,1006.52
2019-02-05T05:06:49.649Z,1006.53
2019-02-05T05:07:49.646Z,1006.57
2019-02-05T05:08:49.640Z,1006.53
2019-02-05T05:09:49.678Z,1006.55
2019-02-05T05:10:49.608Z,1006.53
2019-02-05T05:11:49.603Z,1006.51
2019-02-05T05:12:49.598Z,1006.55
2019-02-05T05:13:49.585Z,1006.50
2019-02-05T05:14:49.574Z,1006.55
2019-02-05T05:15:49.596Z,1006.55
2019-02-05T05:16:49.544Z,1006.54
2019-02-05T05:17:49.537Z,1006.54
2019-02-05T05:18:49.588Z,1006.59
2019-02-05T05:19:49.526Z,1006.56
2019-02-05T05:20:49.508Z,1006.62
2019-02-05T05:21:49.546Z,1006.59
2019-02-05T05:22:49.486Z,1006.66
2019-02-05T05:23:49.476Z,1006.66
2019-02-05T05:24:49.466Z,1006.70
2019-02-05T05:25:49.458Z,1006.68
2019-02-05T05:26:49.449Z,1006.71
2019-02-05T05:27:49.454Z,1006.72
2019-02-05T05:28:49.420Z,1006.69
2019-02-05T05:29:49.408Z,1006.74
2019-02-05T05:30:49.397Z,1006.74
2019-02-05T05:31:49.396Z,1006.78
2019-02-05T05:32:49.373Z,1006.80
2019-02-05T05:33:49.406Z,1006.78
2019-02-05T05:34:49.352Z,1006.79
2019-02-05T05:35:49.355Z,1006.81
2019-02-05T05:36:49.334Z,1006.79
2019-02-05T05:37:49.323Z,1006.80
2019-02-05T05:38:49.314Z,1006.79
2019-02-05T05:39:49.401Z,1006.71
2019-02-05T05:40:49.287Z,1006.73
2019-02-05T05:41:49.278Z,1006.73
2019-02-05T05:42:49.271Z,1006.72
2019-02-05T05:43:49.259Z,1006.69
2019-02-05T05:44:49.240Z,1006.72
2019-02-05T05:45:49.280Z,1006.73
2019-02-05T05:46:49.217Z,1006.68
2019-02-05T05:47:49.213Z,1006.74
2019-02-05T05:48:49.197Z,1006.72
2019-02-05T05:49:49.187Z,1006.68
2019-02-05T05:50:49.178Z,1006.70
2019-02-05T05:51:49.255Z,1006.73
2019-02-05T05:52:49.162Z,1006.69
2019-02-05T05:53:49.218Z,1006.68
2019-02-05T05:54:49.147Z,1006.71
2019-02-05T05:55:49.135Z,1006.72
2019-02-05T05:56:49.126Z,1006.65
2019-02-05T05:57:49.139Z,1006.72
2019-02-05T05:58:49.107Z,1006.68
2019-02-05T05:59:49.103Z,1006.68
2019-02-05T06:00:49.074Z,1006.67
2019-02-05T06:01:49.066Z,1006.72
2019-02-05T06:02:49.102Z,1006.78
2019-02-05T06:03:49.083Z,1006.73
2019-02-05T06:04:49.053Z,1006.75
2019-02-05T06:05:49.021Z,1006.74
2019-02-05T06:06:49.024Z,1006.73
2019-02-05T06:07:48.999Z,1006.74
2019-02-05T06:08:49.021Z,1006.77
2019-02-05T06:09:49.037Z,1006.78
2019-02-05T06:10:49.051Z,1006.79
2019-02-05T06:11:48.961Z,1006.77
2019-02-05T06:12:48.946Z,1006.76
2019-02-05T06:13:48.945Z,1006.76
2019-02-05T06:14:48.924Z,1006.75
2019-02-05T06:15:48.945Z,1006.76
2019-02-05T06:16:48.898Z,1006.81
2019-02-05T06:17:48.888Z,1006.79
2019-02-05T06:18:48.886Z,1006.74
2019-02-05T06:19:48.884Z,1006.79
2019-02-05T06:20:48.857Z,1006.79
2019-02-05T06:21:48.875Z,1006.84
2019-02-05T06:22:48.834Z,1006.86
2019-02-05T06:23:48.829Z,1006.82
2019-02-05T06:24:48.839Z,1006.87
2019-02-05T06:25:48.817Z,1006.85
2019-02-05T06:26:48.791Z,1006.87
2019-02-05T06:27:48.856Z,1006.79
2019-02-05T06:28:48.772Z,1006.77
2019-02-05T06:29:48.781Z,1006.80
2019-02-05T06:30:48.789Z,1006.86
2019-02-05T06:31:48.752Z,1006.83
2019-02-05T06:32:48.730Z,1006.88
2019-02-05T06:33:48.748Z,1006.90
2019-02-05T06:34:48.719Z,1006.89
2019-02-05T06:35:48.707Z,1006.94
2019-02-05T06:36:48.691Z,1006.99
2019-02-05T06:37:48.679Z,1006.96
2019-02-05T06:38:48.666Z,1006.94
2019-02-05T06:39:48.697Z,1006.96
2019-02-05T06:40:48.714Z,1007.01
2019-02-05T06:41:48.646Z,1007.10
2019-02-05T06:42:48.634Z,1007.06
2019-02-05T06:43:48.605Z,1007.08
2019-02-05T06:44:48.617Z,1007.06
2019-02-05T06:45:48.757Z,1007.07
2019-02-05T06:46:48.582Z,1007.10
2019-02-05T06:47:48.579Z,1007.11
2019-02-05T06:48:48.552Z,1007.11
2019-02-05T06:49:48.544Z,1007.13
2019-02-05T06:50:48.531Z,1007.13
2019-02-05T06:51:48.564Z,1007.17
2019-02-05T06:52:48.513Z,1007.19
2019-02-05T06:53:48.657Z,1007.17
2019-02-05T06:54:48.490Z,1007.14
2019-02-05T06:55:48.474Z,1007.17
2019-02-05T06:56:48.464Z,1007.14
2019-02-05T06:57:48.493Z,1007.20
2019-02-05T06:58:48.443Z,1007.22
2019-02-05T06:59:48.439Z,1007.23
2019-02-05T07:00:48.422Z,1007.24
2019-02-05T07:01:48.587Z,1007.25
2019-02-05T07:02:48.476Z,1007.21
2019-02-05T07:03:48.430Z,1007.26
2019-02-05T07:04:49.388Z,1007.26
2019-02-05T07:05:48.443Z,1007.29
2019-02-05T07:06:48.387Z,1007.27
2019-02-05T07:07:48.376Z,1007.29
2019-02-05T07:08:48.354Z,1007.27
2019-02-05T07:09:48.392Z,1007.29
2019-02-05T07:10:48.341Z,1007.30
2019-02-05T07:11:48.323Z,1007.31
2019-02-05T07:12:48.322Z,1007.33
2019-02-05T07:13:48.301Z,1007.33
2019-02-05T07:14:48.311Z,1007.33
2019-02-05T07:15:48.339Z,1007.37
2019-02-05T07:16:48.266Z,1007.31
2019-02-05T07:17:50.162Z,1007.29
2019-02-05T07:18:48.255Z,1007.36
2019-02-05T07:19:48.245Z,1007.37
2019-02-05T07:20:48.229Z,1007.38
2019-02-05T07:21:48.272Z,1007.37
2019-02-05T07:22:48.219Z,1007.40
2019-02-05T07:23:48.235Z,1007.39
2019-02-05T07:24:48.192Z,1007.37
2019-02-05T07:25:48.165Z,1007.34
2019-02-05T07:26:48.158Z,1007.37
2019-02-05T07:27:48.201Z,1007.40
2019-02-05T07:28:58.018Z,1007.40
2019-02-05T07:29:49.142Z,1007.44
2019-02-05T07:30:48.111Z,1007.47
2019-02-05T07:31:48.122Z,1007.46
2019-02-05T07:32:48.093Z,1007.44
2019-02-05T07:33:48.127Z,1007.50
2019-02-05T07:34:48.071Z,1007.46
2019-02-05T07:35:48.059Z,1007.43
2019-02-05T07:36:48.065Z,1007.50
2019-02-05T07:37:48.033Z,1007.51
2019-02-05T07:38:48.023Z,1007.52
2019-02-05T07:39:48.059Z,1007.54
2019-02-05T07:40:48.007Z,1007.50
2019-02-05T07:41:48.008Z,1007.50
2019-02-05T07:42:47.995Z,1007.48
2019-02-05T07:43:47.973Z,1007.47
2019-02-05T07:44:47.959Z,1007.53
2019-02-05T07:45:48.086Z,1007.51
2019-02-05T07:46:48.036Z,1007.57
2019-02-05T07:47:47.952Z,1007.52
2019-02-05T07:48:47.915Z,1007.55
2019-02-05T07:49:47.907Z,1007.52
2019-02-05T07:50:47.908Z,1007.57
2019-02-05T07:51:47.934Z,1007.58
2019-02-05T07:52:47.871Z,1007.59
2019-02-05T07:53:47.899Z,1007.62
2019-02-05T07:54:47.854Z,1007.61
2019-02-05T07:55:47.841Z,1007.58
2019-02-05T07:56:47.888Z,1007.58
2019-02-05T07:57:47.861Z,1007.53
2019-02-05T07:58:47.839Z,1007.49
2019-02-05T07:59:47.808Z,1007.52
2019-02-05T08:00:47.785Z,1007.53
2019-02-05T08:01:47.775Z,1007.51
2019-02-05T08:02:47.770Z,1007.50
2019-02-05T08:03:47.859Z,1007.55
2019-02-05T08:04:47.745Z,1007.58
2019-02-05T08:05:47.740Z,1007.57
2019-02-05T08:06:47.788Z,1007.57
2019-02-05T08:07:47.712Z,1007.65
2019-02-05T08:08:47.696Z,1007.64
2019-02-05T08:09:47.747Z,1007.67
2019-02-05T08:10:47.677Z,1007.68
2019-02-05T08:11:47.691Z,1007.68
2019-02-05T08:12:47.671Z,1007.68
2019-02-05T08:13:47.650Z,1007.76
2019-02-05T08:14:47.640Z,1007.77
2019-02-05T08:15:47.679Z,1007.79
2019-02-05T08:16:48.158Z,1007.79
2019-02-05T08:17:47.678Z,1007.82
2019-02-05T08:18:47.602Z,1007.81
2019-02-05T08:19:47.600Z,1007.82
2019-02-05T08:20:47.563Z,1007.81
2019-02-05T08:21:47.603Z,1007.87
2019-02-05T08:22:47.543Z,1007.89
2019-02-05T08:23:47.533Z,1007.89
2019-02-05T08:24:47.531Z,1007.91
2019-02-05T08:25:47.510Z,1007.87
2019-02-05T08:26:47.500Z,1007.87
2019-02-05T08:27:47.548Z,1007.84
2019-02-05T08:28:47.476Z,1007.88
2019-02-05T08:29:47.479Z,1007.80
2019-02-05T08:30:47.470Z,1007.78
2019-02-05T08:31:47.442Z,1007.80
2019-02-05T08:32:47.433Z,1007.78
2019-02-05T08:33:47.469Z,1007.74
2019-02-05T08:34:47.413Z,1007.81
2019-02-05T08:35:47.403Z,1007.82
2019-02-05T08:36:47.411Z,1007.83
2019-02-05T08:37:47.383Z,1007.89
2019-02-05T08:38:47.367Z,1007.87
2019-02-05T08:39:47.410Z,1007.97
2019-02-05T08:40:47.356Z,1007.99
2019-02-05T08:41:47.335Z,1007.98
2019-02-05T08:42:47.357Z,1007.99
2019-02-05T08:43:47.315Z,1008.02
2019-02-05T08:44:47.303Z,1008.02
2019-02-05T08:45:56.199Z,1008.12
2019-02-05T08:46:48.288Z,1008.10
2019-02-05T08:47:47.273Z,1008.01
2019-02-05T08:48:47.266Z,1008.08
2019-02-05T08:49:47.251Z,1008.09
2019-02-05T08:50:47.235Z,1008.06
2019-02-05T08:51:47.430Z,1008.13
2019-02-05T08:52:47.224Z,1008.13
2019-02-05T08:53:47.205Z,1008.14
2019-02-05T08:54:47.220Z,1008.13
2019-02-05T08:55:47.186Z,1008.17
2019-02-05T08:56:47.181Z,1008.16
2019-02-05T08:57:47.200Z,1008.13
2019-02-05T08:58:47.161Z,1008.17
2019-02-05T08:59:47.143Z,1008.10
2019-02-05T09:00:47.140Z,1008.13
2019-02-05T09:01:47.120Z,1008.11
2019-02-05T09:02:47.107Z,1008.15
2019-02-05T09:03:47.135Z,1008.12
2019-02-05T09:04:47.084Z,1008.09
2019-02-05T09:05:47.087Z,1008.14
2019-02-05T09:06:47.067Z,1008.14
2019-02-05T09:07:47.058Z,1008.18
2019-02-05T09:08:47.052Z,1008.10
2019-02-05T09:09:47.079Z,1008.12
2019-02-05T09:10:47.028Z,1008.12
2019-02-05T09:11:47.027Z,1008.15
2019-02-05T09:12:46.999Z,1008.15
2019-02-05T09:13:46.990Z,1008.17
2019-02-05T09:14:46.981Z,1008.19
2019-02-05T09:15:47.019Z,1008.21
2019-02-05T09:16:46.959Z,1008.21
2019-02-05T09:17:46.963Z,1008.19
2019-02-05T09:18:46.935Z,1008.24
2019-02-05T09:19:46.925Z,1008.22
2019-02-05T09:20:46.948Z,1008.26
2019-02-05T09:21:46.944Z,1008.29
2019-02-05T09:22:46.890Z,1008.26
2019-02-05T09:23:46.900Z,1008.26
2019-02-05T09:24:46.875Z,1008.31
2019-02-05T09:25:46.858Z,1008.31
2019-02-05T09:26:46.846Z,1008.33
2019-02-05T09:27:46.889Z,1008.33
2019-02-05T09:28:46.830Z,1008.34
2019-02-05T09:29:46.826Z,1008.34
2019-02-05T09:30:46.811Z,1008.32
2019-02-05T09:31:46.814Z,1008.34
2019-02-05T09:32:46.797Z,1008.33
2019-02-05T09:33:46.809Z,1008.29
2019-02-05T09:34:46.794Z,1008.30
2019-02-05T09:35:46.752Z,1008.29
2019-02-05T09:36:46.740Z,1008.32
2019-02-05T09:37:46.729Z,1008.37
2019-02-05T09:38:46.724Z,1008.32
2019-02-05T09:39:46.765Z,1008.31
2019-02-05T09:40:46.699Z,1008.26
2019-02-05T09:41:46.709Z,1008.31
2019-02-05T09:42:46.682Z,1008.32
2019-02-05T09:43:46.662Z,1008.35
2019-02-05T09:44:46.658Z,1008.37
2019-02-05T09:45:46.684Z,1008.38
2019-02-05T09:46:46.632Z,1008.34
2019-02-05T09:47:46.626Z,1008.33
2019-02-05T09:48:46.619Z,1008.34
2019-02-05T09:49:46.618Z,1008.35
2019-02-05T09:50:46.588Z,1008.42
2019-02-05T09:51:46.660Z,1008.34
2019-02-05T09:52:46.567Z,1008.37
2019-02-05T09:53:46.562Z,1008.36
2019-02-05T09:54:46.548Z,1008.31
2019-02-05T09:55:46.557Z,1008.29
2019-02-05T09:56:46.530Z,1008.31
2019-02-05T09:57:46.556Z,1008.28
2019-02-05T09:58:46.521Z,1008.31
2019-02-05T09:59:46.492Z,1008.31
2019-02-05T10:00:46.483Z,1008.33
2019-02-05T10:01:46.499Z,1008.28
2019-02-05T10:02:46.456Z,1008.30
2019-02-05T10:03:46.495Z,1008.33
2019-02-05T10:04:46.448Z,1008.32
2019-02-05T10:05:46.460Z,1008.31
2019-02-05T10:06:46.414Z,1008.33
2019-02-05T10:07:46.403Z,1008.33
2019-02-05T10:08:46.408Z,1008.37
2019-02-05T10:09:46.450Z,1008.34
2019-02-05T10:10:46.380Z,1008.44
2019-02-05T10:11:46.379Z,1008.39
2019-02-05T10:12:47.006Z,1008.44
2019-02-05T10:13:46.368Z,1008.43
2019-02-05T10:14:46.336Z,1008.47
2019-02-05T10:15:46.600Z,1008.40
2019-02-05T10:16:46.321Z,1008.44
2019-02-05T10:17:46.331Z,1008.46
2019-02-05T10:18:46.293Z,1008.44
2019-02-05T10:19:46.278Z,1008.45
2019-02-05T10:20:46.333Z,1008.48
2019-02-05T10:21:46.308Z,1008.50
2019-02-05T10:22:46.249Z,1008.50
2019-02-05T10:23:46.231Z,1008.48
2019-02-05T10:24:46.257Z,1008.52
2019-02-05T10:25:46.213Z,1008.53
2019-02-05T10:26:46.199Z,1008.49
2019-02-05T10:27:46.257Z,1008.49
2019-02-05T10:28:46.174Z,1008.50
2019-02-05T10:29:56.533Z,1008.53
2019-02-05T10:30:47.173Z,1008.54
2019-02-05T10:31:46.143Z,1008.55
2019-02-05T10:32:46.131Z,1008.53
2019-02-05T10:33:55.014Z,1008.53
2019-02-05T10:34:47.107Z,1008.48
2019-02-05T10:35:46.110Z,1008.53
2019-02-05T10:36:46.121Z,1008.50
2019-02-05T10:37:46.130Z,1008.50
2019-02-05T10:38:46.078Z,1008.53
2019-02-05T10:39:46.173Z,1008.54
2019-02-05T10:40:46.075Z,1008.50
2019-02-05T10:41:46.037Z,1008.54
2019-02-05T10:42:46.027Z,1008.54
2019-02-05T10:43:46.025Z,1008.55
2019-02-05T10:44:46.009Z,1008.52
2019-02-05T10:45:46.037Z,1008.52
2019-02-05T10:46:45.996Z,1008.53
2019-02-05T10:47:45.971Z,1008.52
2019-02-05T10:48:45.967Z,1008.46
2019-02-05T10:49:45.949Z,1008.46
2019-02-05T10:50:45.943Z,1008.47
2019-02-05T10:51:46.085Z,1008.50
2019-02-05T10:52:45.930Z,1008.52
2019-02-05T10:53:45.914Z,1008.56
2019-02-05T10:54:45.899Z,1008.51
2019-02-05T10:55:45.886Z,1008.51
2019-02-05T10:56:45.873Z,1008.52
2019-02-05T10:57:45.906Z,1008.50
2019-02-05T10:58:45.857Z,1008.53
2019-02-05T10:59:45.843Z,1008.53
2019-02-05T11:00:45.832Z,1008.56
2019-02-05T11:01:45.818Z,1008.58
2019-02-05T11:02:45.804Z,1008.57
2019-02-05T11:03:45.837Z,1008.50
2019-02-05T11:04:45.789Z,1008.50
2019-02-05T11:05:45.780Z,1008.47
2019-02-05T11:06:45.764Z,1008.53
2019-02-05T11:07:45.751Z,1008.53
2019-02-05T11:08:45.749Z,1008.55
2019-02-05T11:09:45.896Z,1008.55
2019-02-05T11:10:45.724Z,1008.57
2019-02-05T11:11:45.709Z,1008.54
2019-02-05T11:12:45.698Z,1008.56
2019-02-05T11:13:45.681Z,1008.53
2019-02-05T11:14:45.682Z,1008.54
2019-02-05T11:15:45.713Z,1008.55
2019-02-05T11:16:45.649Z,1008.55
2019-02-05T11:17:45.665Z,1008.55
2019-02-05T11:18:45.633Z,1008.55
2019-02-05T11:19:45.626Z,1008.57
2019-02-05T11:20:45.612Z,1008.55
2019-02-05T11:21:45.658Z,1008.52
2019-02-05T11:22:45.613Z,1008.53
2019-02-05T11:23:45.580Z,1008.48
2019-02-05T11:24:45.563Z,1008.48
2019-02-05T11:25:45.552Z,1008.45
2019-02-05T11:26:45.548Z,1008.46
2019-02-05T11:27:46.058Z,1008.41
2019-02-05T11:28:45.541Z,1008.35
2019-02-05T11:29:45.512Z,1008.41
2019-02-05T11:30:45.508Z,1008.33
2019-02-05T11:31:45.493Z,1008.32
2019-02-05T11:32:45.479Z,1008.35
2019-02-05T11:33:45.527Z,1008.37
2019-02-05T11:34:45.463Z,1008.36
2019-02-05T11:35:45.444Z,1008.31
2019-02-05T11:36:45.439Z,1008.31
2019-02-05T11:37:45.442Z,1008.28
2019-02-05T11:38:45.411Z,1008.32
2019-02-05T11:39:45.444Z,1008.31
2019-02-05T11:40:45.393Z,1008.35
2019-02-05T11:41:45.401Z,1008.35
2019-02-05T11:42:45.363Z,1008.31
2019-02-05T11:43:45.355Z,1008.31
2019-02-05T11:44:45.354Z,1008.34
2019-02-05T11:45:45.392Z,1008.27
2019-02-05T11:46:45.322Z,1008.28
2019-02-05T11:47:45.333Z,1008.32
2019-02-05T11:48:45.333Z,1008.32
2019-02-05T11:49:45.291Z,1008.32
2019-02-05T11:50:45.284Z,1008.29
2019-02-05T11:51:45.303Z,1008.27
2019-02-05T11:52:45.260Z,1008.30
2019-02-05T11:53:45.249Z,1008.19
2019-02-05T11:54:45.258Z,1008.21
2019-02-05T11:55:45.234Z,1008.22
2019-02-05T11:56:45.220Z,1008.21
2019-02-05T11:57:45.420Z,1008.19
2019-02-05T11:58:45.199Z,1008.24
2019-02-05T11:59:45.255Z,1008.22
2019-02-05T12:00:45.173Z,1008.24
2019-02-05T12:01:45.170Z,1008.27
2019-02-05T12:02:45.155Z,1008.26
2019-02-05T12:03:45.198Z,1008.31
2019-02-05T12:04:45.136Z,1008.28
2019-02-05T12:05:45.123Z,1008.31